Time;durP1;ratioP1;P1;durP2;ratioP2;P2;SDS_P1;SDS_P2;PMS_P1;PMS_P2;Temp;Humidity;BMP_temperature;BMP_pressure;BME280_temperature;BME280_humidity;BME280_pressure;Samples;Min_cycle;Max_cycle;Signal;HPM_P1;HPM_P2
2022/06/11 00:00:46;;;;;;;25.35;5.03;;;;;;;;;;4868975;29;20067;-65
2022/06/11 00:03:12;;;;;;;28.88;5.35;;;;;;;;;;4869085;29;20194;-65
2022/06/11 00:05:37;;;;;;;29.15;4.93;;;;;;;;;;4851532;29;20052;-66
2022/06/11 00:08:03;;;;;;;29.45;4.82;;;;;;;;;;4867286;29;20047;-65
2022/06/11 00:10:29;;;;;;;21.88;4.50;;;;;;;;;;4868779;29;20909;-67
2022/06/11 00:12:55;;;;;;;32.30;5.43;;;;;;;;;;4867814;29;20032;-66
2022/06/11 00:15:20;;;;;;;26.08;5.35;;;;;;;;;;4845543;29;20946;-65
2022/06/11 00:17:46;;;;;;;23.13;4.97;;;;;;;;;;4865103;29;20966;-66
2022/06/11 00:20:14;;;;;;;26.35;4.82;;;;;;;;;;4866347;29;20038;-66
2022/06/11 00:22:40;;;;;;;28.98;5.32;;;;;;;;;;4868936;29;20052;-67
2022/06/11 00:25:05;;;;;;;23.27;4.40;;;;;;;;;;4867116;29;20036;-66
2022/06/11 00:27:31;;;;;;;22.50;4.28;;;;;;;;;;4868359;29;20060;-67
2022/06/11 00:29:56;;;;;;;26.98;5.03;;;;;;;;;;4851743;29;20036;-71
2022/06/11 00:32:22;;;;;;;27.90;5.38;;;;;;;;;;4849509;29;20135;-69
2022/06/11 00:34:47;;;;;;;19.55;4.32;;;;;;;;;;4866426;29;20048;-71
2022/06/11 00:37:14;;;;;;;20.63;4.28;;;;;;;;;;4865905;29;20048;-70
2022/06/11 00:39:40;;;;;;;30.95;5.18;;;;;;;;;;4867016;29;20040;-72
2022/06/11 00:42:11;;;;;;;27.70;4.97;;;;;;;;;;4866357;29;20127;-66
2022/06/11 00:44:37;;;;;;;23.75;4.53;;;;;;;;;;4867599;29;20043;-68
2022/06/11 00:47:08;;;;;;;23.85;4.60;;;;;;;;;;4864894;29;20134;-67
2022/06/11 00:49:42;;;;;;;28.08;4.88;;;;;;;;;;4866228;29;20198;-67
2022/06/11 00:52:19;;;;;;;26.65;4.93;;;;;;;;;;4867790;29;20032;-66
2022/06/11 00:54:49;;;;;;;21.85;5.18;;;;;;;;;;4866785;29;20620;-66
2022/06/11 00:57:15;;;;;;;25.58;5.07;;;;;;;;;;4846436;29;20051;-67
2022/06/11 00:59:42;;;;;;;22.88;4.78;;;;;;;;;;4846443;29;20084;-67
2022/06/11 01:02:08;;;;;;;20.85;4.35;;;;;;;;;;4864178;29;20036;-67
2022/06/11 01:04:50;;;;;;;25.95;4.38;;;;;;;;;;4867431;29;20032;-67
2022/06/11 01:07:18;;;;;;;25.23;4.63;;;;;;;;;;4868078;29;20039;-66
2022/06/11 01:09:56;;;;;;;27.60;5.47;;;;;;;;;;4864996;29;20227;-66
2022/06/11 01:12:44;;;;;;;22.73;4.75;;;;;;;;;;4866622;29;20750;-66
2022/06/11 01:15:12;;;;;;;33.13;5.88;;;;;;;;;;4853298;29;20068;-67
2022/06/11 01:17:37;;;;;;;26.73;5.00;;;;;;;;;;4866860;29;20040;-64
2022/06/11 01:20:09;;;;;;;26.77;5.00;;;;;;;;;;4865902;29;20135;-65
2022/06/11 01:22:54;;;;;;;24.83;4.65;;;;;;;;;;4866827;29;20047;-65
2022/06/11 01:25:35;;;;;;;27.50;5.05;;;;;;;;;;4866652;29;20036;-65
2022/06/11 01:28:19;;;;;;;26.90;4.97;;;;;;;;;;4866815;29;20048;-66
2022/06/11 01:30:45;;;;;;;34.85;5.65;;;;;;;;;;4866044;29;20028;-67
2022/06/11 01:33:19;;;;;;;32.25;5.30;;;;;;;;;;4866781;29;20031;-67
2022/06/11 01:36:06;;;;;;;24.92;5.20;;;;;;;;;;4864664;29;20048;-67
2022/06/11 01:38:32;;;;;;;22.60;5.00;;;;;;;;;;4867079;29;20044;-66
2022/06/11 01:41:17;;;;;;;23.83;5.00;;;;;;;;;;4866627;29;20148;-66
2022/06/11 01:43:45;;;;;;;29.75;5.13;;;;;;;;;;4865212;29;20036;-66
2022/06/11 01:46:19;;;;;;;25.42;5.20;;;;;;;;;;4867120;29;20044;-65
2022/06/11 01:48:50;;;;;;;33.05;5.72;;;;;;;;;;4866694;29;20044;-67
2022/06/11 01:51:22;;;;;;;30.58;5.05;;;;;;;;;;4864611;29;20040;-65
2022/06/11 01:53:47;;;;;;;;;;;;;;;;;;4865563;29;20041;-65
2022/06/11 01:56:16;;;;;;;33.70;5.55;;;;;;;;;;4866534;29;20042;-66
2022/06/11 01:58:59;;;;;;;34.00;5.95;;;;;;;;;;4849132;29;20048;-66
2022/06/11 02:01:30;;;;;;;27.50;5.57;;;;;;;;;;4866363;29;20083;-67
2022/06/11 02:04:05;;;;;;;27.88;6.25;;;;;;;;;;4865818;29;20039;-66
2022/06/11 02:06:37;;;;;;;29.75;5.50;;;;;;;;;;4865274;29;20099;-66
2022/06/11 02:09:17;;;;;;;29.77;6.25;;;;;;;;;;4867432;29;20826;-66
2022/06/11 02:11:47;;;;;;;30.08;5.78;;;;;;;;;;4845684;29;20047;-66
2022/06/11 02:14:27;;;;;;;31.38;5.70;;;;;;;;;;4863268;29;20040;-66
2022/06/11 02:16:56;;;;;;;33.45;6.18;;;;;;;;;;4863452;29;20079;-66
2022/06/11 02:19:30;;;;;;;30.42;6.50;;;;;;;;;;4865528;29;20161;-66
2022/06/11 02:22:16;;;;;;;30.42;6.05;;;;;;;;;;4865268;29;20043;-67
2022/06/11 02:24:49;;;;;;;33.25;6.68;;;;;;;;;;4865276;29;20174;-67
2022/06/11 02:27:15;;;;;;;30.60;6.72;;;;;;;;;;4864183;29;20082;-66
2022/06/11 02:29:41;;;;;;;33.38;6.00;;;;;;;;;;4866285;29;20357;-66
2022/06/11 02:32:09;;;;;;;34.17;5.68;;;;;;;;;;4864635;29;20032;-66
2022/06/11 02:34:38;;;;;;;36.38;6.82;;;;;;;;;;4865065;29;20112;-67
2022/06/11 02:37:08;;;;;;;32.95;6.05;;;;;;;;;;4864666;29;20044;-67
2022/06/11 02:39:35;;;;;;;34.05;6.03;;;;;;;;;;4864379;29;20040;-67
2022/06/11 02:42:03;;;;;;;31.92;6.50;;;;;;;;;;4848283;29;20040;-66
2022/06/11 02:44:28;;;;;;;31.58;6.18;;;;;;;;;;4862063;29;20076;-66
2022/06/11 02:46:54;;;;;;;30.60;5.63;;;;;;;;;;4865813;29;20504;-65
2022/06/11 02:49:24;;;;;;;36.03;6.72;;;;;;;;;;4833680;29;20120;-67
2022/06/11 02:51:50;;;;;;;31.27;6.40;;;;;;;;;;4848492;29;20036;-66
2022/06/11 02:54:17;;;;;;;32.33;6.15;;;;;;;;;;4862143;29;20077;-67
2022/06/11 02:56:42;;;;;;;44.80;7.95;;;;;;;;;;4864075;29;20052;-66
2022/06/11 02:59:08;;;;;;;38.63;6.65;;;;;;;;;;4863448;29;20899;-67
2022/06/11 03:01:33;;;;;;;36.50;6.82;;;;;;;;;;4866682;29;20836;-66
2022/06/11 03:03:59;;;;;;;38.05;6.78;;;;;;;;;;4844124;29;20274;-66
2022/06/11 03:06:25;;;;;;;38.83;6.80;;;;;;;;;;4864729;29;20421;-65
2022/06/11 03:08:52;;;;;;;46.88;7.85;;;;;;;;;;4849762;29;20040;-67
2022/06/11 03:11:18;;;;;;;40.65;7.53;;;;;;;;;;4865487;29;20115;-68
2022/06/11 03:13:44;;;;;;;38.38;6.88;;;;;;;;;;4864726;29;20040;-67
2022/06/11 03:16:11;;;;;;;38.55;6.75;;;;;;;;;;4864356;29;20044;-65
2022/06/11 03:18:36;;;;;;;38.55;7.53;;;;;;;;;;4864655;29;20044;-65
2022/06/11 03:21:01;;;;;;;39.28;7.18;;;;;;;;;;4865529;29;20036;-66
2022/06/11 03:23:29;;;;;;;31.63;6.90;;;;;;;;;;4848922;29;20147;-65
2022/06/11 03:25:54;;;;;;;39.13;7.47;;;;;;;;;;4862594;29;20135;-65
2022/06/11 03:28:22;;;;;;;38.22;8.38;;;;;;;;;;4864657;29;20040;-66
2022/06/11 03:30:48;;;;;;;40.25;7.85;;;;;;;;;;4865546;29;20045;-66
2022/06/11 03:33:14;;;;;;;39.33;6.07;;;;;;;;;;4864099;29;20844;-67
2022/06/11 03:35:39;;;;;;;44.03;7.05;;;;;;;;;;4865003;29;20198;-66
2022/06/11 03:38:07;;;;;;;36.85;7.32;;;;;;;;;;4863977;29;20363;-66
2022/06/11 03:40:35;;;;;;;33.03;6.57;;;;;;;;;;4861736;29;20741;-66
2022/06/11 03:43:01;;;;;;;39.30;7.72;;;;;;;;;;4863036;29;20044;-66
2022/06/11 03:45:26;;;;;;;37.80;6.72;;;;;;;;;;4864329;29;20040;-66
2022/06/11 03:47:54;;;;;;;40.15;7.43;;;;;;;;;;4849271;29;20961;-65
2022/06/11 03:50:28;;;;;;;42.25;7.47;;;;;;;;;;4843904;29;20597;-66
2022/06/11 03:52:54;;;;;;;38.42;8.05;;;;;;;;;;4865228;29;20099;-65
2022/06/11 03:55:21;;;;;;;36.15;6.70;;;;;;;;;;4865683;29;20162;-66
2022/06/11 03:57:46;;;;;;;36.78;7.28;;;;;;;;;;4847568;29;20069;-66
2022/06/11 04:00:13;;;;;;;42.28;8.55;;;;;;;;;;4847821;29;20470;-65
2022/06/11 04:02:39;;;;;;;41.15;7.32;;;;;;;;;;4866282;29;20041;-66
2022/06/11 04:05:07;;;;;;;52.83;9.50;;;;;;;;;;4866704;29;20051;-65
2022/06/11 04:07:33;;;;;;;39.47;7.45;;;;;;;;;;4868411;29;20111;-66
2022/06/11 04:09:58;;;;;;;39.03;7.72;;;;;;;;;;4867662;29;20461;-65
2022/06/11 04:12:24;;;;;;;40.92;7.28;;;;;;;;;;4866924;29;20136;-67
2022/06/11 04:14:50;;;;;;;42.63;8.07;;;;;;;;;;4866628;29;20146;-66
2022/06/11 04:17:17;;;;;;;42.88;7.40;;;;;;;;;;4868202;29;20120;-67
2022/06/11 04:19:44;;;;;;;40.10;7.70;;;;;;;;;;4867739;29;21186;-67
2022/06/11 04:22:09;;;;;;;45.78;7.43;;;;;;;;;;4867827;29;20045;-66
2022/06/11 04:24:35;;;;;;;47.17;7.32;;;;;;;;;;4869091;29;20769;-65
2022/06/11 04:27:03;;;;;;;47.25;7.95;;;;;;;;;;4867096;29;20068;-67
2022/06/11 04:29:30;;;;;;;40.90;7.90;;;;;;;;;;4868523;29;20036;-65
2022/06/11 04:31:57;;;;;;;38.50;7.68;;;;;;;;;;4866684;29;20071;-66
2022/06/11 04:34:23;;;;;;;44.00;7.35;;;;;;;;;;4868236;29;20040;-66
2022/06/11 04:36:48;;;;;;;45.75;8.48;;;;;;;;;;4867948;29;20052;-66
2022/06/11 04:39:16;;;;;;;46.17;8.13;;;;;;;;;;4868186;29;20044;-66
2022/06/11 04:41:44;;;;;;;38.85;7.95;;;;;;;;;;4867890;29;20875;-65
2022/06/11 04:44:10;;;;;;;46.55;8.48;;;;;;;;;;4865860;29;20036;-65
2022/06/11 04:46:35;;;;;;;41.78;8.02;;;;;;;;;;4829948;29;20039;-66
2022/06/11 04:49:01;;;;;;;41.97;7.72;;;;;;;;;;4850175;29;20166;-67
2022/06/11 04:51:26;;;;;;;34.67;7.45;;;;;;;;;;4849358;29;20040;-65
2022/06/11 04:53:54;;;;;;;35.80;7.50;;;;;;;;;;4851597;29;20074;-65
2022/06/11 04:56:21;;;;;;;36.85;6.53;;;;;;;;;;4866928;29;20083;-68
2022/06/11 04:58:49;;;;;;;34.53;6.60;;;;;;;;;;4866101;29;20043;-64
2022/06/11 05:01:15;;;;;;;40.22;6.80;;;;;;;;;;4865192;29;20028;-66
2022/06/11 05:03:41;;;;;;;34.92;7.03;;;;;;;;;;4867215;29;20048;-66
2022/06/11 05:06:06;;;;;;;32.67;6.47;;;;;;;;;;4866323;29;20045;-67
2022/06/11 05:08:32;;;;;;;32.20;6.82;;;;;;;;;;4867416;29;20147;-67
2022/06/11 05:10:58;;;;;;;29.05;6.07;;;;;;;;;;4861264;29;20078;-65
2022/06/11 05:13:23;;;;;;;38.30;6.80;;;;;;;;;;4843249;29;20128;-65
2022/06/11 05:15:51;;;;;;;31.65;7.22;;;;;;;;;;4848985;29;20052;-65
2022/06/11 05:18:16;;;;;;;32.97;6.68;;;;;;;;;;4864930;29;20152;-66
2022/06/11 05:20:42;;;;;;;34.38;6.90;;;;;;;;;;4865426;29;20044;-66
2022/06/11 05:23:08;;;;;;;38.92;7.13;;;;;;;;;;4855548;29;20048;-65
2022/06/11 05:25:34;;;;;;;37.00;7.03;;;;;;;;;;4866434;29;20033;-66
2022/06/11 05:28:00;;;;;;;34.47;6.72;;;;;;;;;;4860071;29;20065;-67
2022/06/11 05:30:27;;;;;;;36.63;7.13;;;;;;;;;;4864784;29;20095;-67
2022/06/11 05:32:53;;;;;;;34.28;6.07;;;;;;;;;;4861449;29;20577;-66
2022/06/11 05:35:21;;;;;;;32.28;6.88;;;;;;;;;;4863481;29;20142;-66
2022/06/11 05:37:48;;;;;;;27.80;6.05;;;;;;;;;;4850636;29;20033;-64
2022/06/11 05:40:17;;;;;;;34.70;6.63;;;;;;;;;;4867278;29;20040;-70
2022/06/11 05:42:47;;;;;;;27.63;5.85;;;;;;;;;;4865710;29;20029;-71
2022/06/11 05:45:15;;;;;;;30.88;6.43;;;;;;;;;;4862747;29;20099;-69
2022/06/11 05:47:44;;;;;;;35.15;7.00;;;;;;;;;;4864601;29;20111;-68
2022/06/11 05:50:11;;;;;;;35.70;6.32;;;;;;;;;;4847144;29;20032;-69
2022/06/11 05:52:39;;;;;;;32.00;5.80;;;;;;;;;;4866497;29;20082;-69
2022/06/11 05:55:04;;;;;;;31.85;6.47;;;;;;;;;;4861672;29;20040;-69
2022/06/11 05:57:30;;;;;;;34.35;6.82;;;;;;;;;;4863094;29;20094;-73
2022/06/11 05:59:58;;;;;;;32.10;6.35;;;;;;;;;;4865885;29;20858;-73
2022/06/11 06:02:24;;;;;;;31.85;6.03;;;;;;;;;;4865897;29;20045;-73
2022/06/11 06:04:49;;;;;;;27.25;5.90;;;;;;;;;;4864724;29;20088;-72
2022/06/11 06:07:17;;;;;;;32.85;6.10;;;;;;;;;;4866274;29;20143;-72
2022/06/11 06:09:45;;;;;;;30.27;6.10;;;;;;;;;;4865457;29;21084;-71
2022/06/11 06:12:13;;;;;;;26.27;5.97;;;;;;;;;;4866226;29;20036;-72
2022/06/11 06:14:39;;;;;;;28.33;6.13;;;;;;;;;;4845499;29;20075;-73
2022/06/11 06:17:04;;;;;;;27.15;6.00;;;;;;;;;;4865945;29;20032;-74
2022/06/11 06:19:32;;;;;;;29.20;5.57;;;;;;;;;;4866107;29;22577;-72
2022/06/11 06:21:57;;;;;;;29.75;5.55;;;;;;;;;;4862153;29;20040;-73
2022/06/11 06:24:23;;;;;;;25.02;5.93;;;;;;;;;;4848049;29;20051;-70
2022/06/11 06:26:48;;;;;;;29.00;5.82;;;;;;;;;;4865354;29;20115;-70
2022/06/11 06:29:14;;;;;;;26.02;5.47;;;;;;;;;;4845258;29;20614;-70
2022/06/11 06:31:39;;;;;;;26.52;6.05;;;;;;;;;;4861525;29;20614;-69
2022/06/11 06:34:07;;;;;;;27.38;5.70;;;;;;;;;;4862459;29;20229;-69
2022/06/11 06:36:33;;;;;;;25.50;5.40;;;;;;;;;;4847774;29;24419;-69
2022/06/11 06:38:58;;;;;;;25.85;5.75;;;;;;;;;;4863618;29;20753;-69
2022/06/11 06:41:26;;;;;;;31.58;6.10;;;;;;;;;;4862720;29;20032;-69
2022/06/11 06:43:51;;;;;;;27.25;5.80;;;;;;;;;;4861979;29;20122;-69
2022/06/11 06:46:17;;;;;;;29.45;5.55;;;;;;;;;;4861131;29;20044;-69
2022/06/11 06:48:43;;;;;;;26.92;5.10;;;;;;;;;;4862475;29;20032;-68
2022/06/11 06:51:09;;;;;;;22.33;5.32;;;;;;;;;;4862694;29;20044;-69
2022/06/11 06:53:37;;;;;;;28.17;5.53;;;;;;;;;;4862432;29;20308;-70
2022/06/11 06:56:03;;;;;;;28.63;6.10;;;;;;;;;;4862433;29;20052;-68
2022/06/11 06:58:28;;;;;;;29.63;5.30;;;;;;;;;;4861912;29;20067;-69
2022/06/11 07:00:56;;;;;;;25.60;5.30;;;;;;;;;;4858955;29;20048;-65
2022/06/11 07:03:21;;;;;;;32.78;5.90;;;;;;;;;;4864927;29;20041;-73
2022/06/11 07:05:48;;;;;;;30.13;6.25;;;;;;;;;;4849022;29;20040;-72
2022/06/11 07:08:14;;;;;;;24.50;5.05;;;;;;;;;;4877866;29;20047;-74
2022/06/11 07:10:40;;;;;;;24.40;5.35;;;;;;;;;;4882879;29;20060;-74
2022/06/11 07:13:05;;;;;;;27.67;5.25;;;;;;;;;;4853801;29;20044;-73
2022/06/11 07:15:33;;;;;;;31.30;5.63;;;;;;;;;;4865255;29;20040;-71
2022/06/11 07:18:01;;;;;;;24.95;4.95;;;;;;;;;;4863713;29;20040;-71
2022/06/11 07:20:28;;;;;;;25.63;5.65;;;;;;;;;;4865632;29;20056;-73
2022/06/11 07:22:57;;;;;;;22.55;4.90;;;;;;;;;;4847129;29;20112;-74
2022/06/11 07:25:22;;;;;;;22.02;4.68;;;;;;;;;;4864749;29;20036;-74
2022/06/11 07:27:55;;;;;;;21.13;4.80;;;;;;;;;;4865944;29;20071;-73
2022/06/11 07:30:21;;;;;;;22.35;5.38;;;;;;;;;;4864868;29;20079;-74
2022/06/11 07:32:49;;;;;;;20.23;4.57;;;;;;;;;;4865109;29;20858;-73
2022/06/11 07:35:16;;;;;;;25.30;4.95;;;;;;;;;;4868492;29;20046;-75
2022/06/11 07:37:41;;;;;;;26.45;5.22;;;;;;;;;;4859775;29;20515;-73
2022/06/11 07:40:08;;;;;;;22.42;4.72;;;;;;;;;;4879987;29;20036;-71
2022/06/11 07:42:33;;;;;;;27.90;5.30;;;;;;;;;;4851366;29;20143;-69
2022/06/11 07:44:59;;;;;;;23.10;5.13;;;;;;;;;;4867959;29;20481;-69
2022/06/11 07:50:14;;;;;;;26.85;5.13;;;;;;;;;;4851339;29;20129;-71
2022/06/11 07:52:40;;;;;;;25.90;4.82;;;;;;;;;;4849017;29;20036;-70
2022/06/11 07:55:08;;;;;;;23.60;5.32;;;;;;;;;;4869499;29;22594;-75
2022/06/11 07:57:37;;;;;;;21.42;4.72;;;;;;;;;;4868469;29;20156;-74
2022/06/11 08:00:03;;;;;;;26.00;5.57;;;;;;;;;;4868337;29;20044;-73
2022/06/11 08:02:31;;;;;;;25.73;5.68;;;;;;;;;;4866882;29;20259;-72
2022/06/11 08:04:58;;;;;;;21.92;4.60;;;;;;;;;;4863947;29;20036;-73
2022/06/11 08:07:25;;;;;;;21.10;4.72;;;;;;;;;;4867928;29;20049;-74
2022/06/11 08:09:50;;;;;;;22.30;4.78;;;;;;;;;;4868678;29;20040;-73
2022/06/11 08:12:18;;;;;;;20.77;4.35;;;;;;;;;;4868800;29;20147;-73
2022/06/11 08:14:43;;;;;;;20.35;4.93;;;;;;;;;;4854081;29;20083;-75
2022/06/11 08:17:12;;;;;;;22.58;4.88;;;;;;;;;;4868818;29;20044;-74
2022/06/11 08:19:37;;;;;;;22.00;4.53;;;;;;;;;;4858169;29;20048;-75
2022/06/11 08:22:02;;;;;;;15.55;4.20;;;;;;;;;;4866504;29;20036;-75
2022/06/11 08:24:30;;;;;;;24.58;4.70;;;;;;;;;;4849316;29;20047;-75
2022/06/11 08:26:55;;;;;;;20.48;4.70;;;;;;;;;;4867911;29;20791;-74
2022/06/11 08:29:21;;;;;;;21.02;4.07;;;;;;;;;;4845632;29;20040;-71
2022/06/11 08:31:47;;;;;;;24.17;5.28;;;;;;;;;;4865620;29;20099;-73
2022/06/11 08:34:15;;;;;;;17.65;4.40;;;;;;;;;;4865723;29;20036;-75
2022/06/11 08:36:40;;;;;;;19.38;4.10;;;;;;;;;;4869511;29;20087;-75
2022/06/11 08:39:05;;;;;;;21.00;4.88;;;;;;;;;;4866758;29;20032;-73
2022/06/11 08:41:35;;;;;;;22.02;6.68;;;;;;;;;;4867237;29;20072;-74
2022/06/11 08:44:07;;;;;;;22.58;4.18;;;;;;;;;;4865088;29;20861;-65
2022/06/11 08:46:37;;;;;;;16.52;3.88;;;;;;;;;;4861040;29;20040;-67
2022/06/11 08:49:05;;;;;;;24.08;4.82;;;;;;;;;;4865012;29;20050;-65
2022/06/11 08:51:37;;;;;;;22.67;4.15;;;;;;;;;;4861753;29;20036;-67
2022/06/11 08:54:05;;;;;;;18.05;4.63;;;;;;;;;;4867157;29;22535;-74
2022/06/11 08:56:49;;;;;;;18.83;4.20;;;;;;;;;;4853171;29;20052;-73
2022/06/11 08:59:30;;;;;;;24.48;5.18;;;;;;;;;;4851115;29;20203;-72
2022/06/11 09:02:06;;;;;;;20.20;4.53;;;;;;;;;;4861348;29;20032;-76
2022/06/11 09:04:41;;;;;;;22.25;4.82;;;;;;;;;;4862875;29;20032;-71
2022/06/11 09:07:09;;;;;;;19.17;4.38;;;;;;;;;;4849850;29;20036;-75
2022/06/11 09:09:38;;;;;;;28.15;5.20;;;;;;;;;;4866874;29;20069;-76
2022/06/11 09:12:10;;;;;;;24.33;4.65;;;;;;;;;;4861781;29;20495;-75
2022/06/11 09:14:50;;;;;;;21.48;4.80;;;;;;;;;;4865925;29;21111;-77
2022/06/11 09:17:35;;;;;;;22.35;4.82;;;;;;;;;;4866772;29;20091;-77
2022/06/11 09:20:18;;;;;;;22.05;4.93;;;;;;;;;;4867680;29;20044;-77
2022/06/11 09:22:52;;;;;;;22.08;5.03;;;;;;;;;;4867678;29;22427;-74
2022/06/11 09:25:20;;;;;;;27.85;5.43;;;;;;;;;;4864957;29;21772;-74
2022/06/11 09:28:00;;;;;;;26.42;5.72;;;;;;;;;;4865492;29;20036;-72
2022/06/11 09:30:41;;;;;;;22.33;4.78;;;;;;;;;;4865712;29;20862;-77
2022/06/11 09:33:11;;;;;;;24.20;4.95;;;;;;;;;;4867461;29;20040;-78
2022/06/11 09:35:40;;;;;;;26.13;5.50;;;;;;;;;;4860793;29;20774;-75
2022/06/11 09:38:05;;;;;;;25.65;5.25;;;;;;;;;;4867620;29;20040;-77
2022/06/11 09:40:42;;;;;;;24.88;4.82;;;;;;;;;;4868859;29;20032;-77
2022/06/11 09:43:26;;;;;;;28.60;5.38;;;;;;;;;;4865187;29;20035;-73
2022/06/11 09:46:13;;;;;;;31.60;6.35;;;;;;;;;;4857753;29;21943;-74
2022/06/11 09:48:38;;;;;;;25.50;5.07;;;;;;;;;;4863205;29;20736;-73
2022/06/11 09:51:06;;;;;;;29.10;5.45;;;;;;;;;;4864323;29;20036;-74
2022/06/11 09:53:31;;;;;;;28.90;5.40;;;;;;;;;;4862538;29;20385;-68
2022/06/11 09:56:11;;;;;;;32.95;5.90;;;;;;;;;;4864093;29;22243;-74
2022/06/11 09:58:40;;;;;;;28.27;5.90;;;;;;;;;;4865038;29;20831;-68
2022/06/11 10:01:14;;;;;;;24.38;4.80;;;;;;;;;;4861171;29;20044;-75
2022/06/11 10:03:43;;;;;;;27.95;5.10;;;;;;;;;;4858491;29;20044;-73
2022/06/11 10:06:13;;;;;;;34.83;5.50;;;;;;;;;;4862947;29;20040;-74
2022/06/11 10:08:38;;;;;;;28.67;5.32;;;;;;;;;;4861009;29;20047;-74
2022/06/11 10:11:05;;;;;;;28.95;5.25;;;;;;;;;;4861267;29;20036;-72
2022/06/11 10:13:40;;;;;;;27.10;4.88;;;;;;;;;;4863806;29;20263;-74
2022/06/11 10:16:31;;;;;;;28.67;6.15;;;;;;;;;;4861089;29;20052;-72
2022/06/11 10:19:00;;;;;;;28.20;5.57;;;;;;;;;;4857861;29;20048;-72
2022/06/11 10:21:27;;;;;;;24.38;5.35;;;;;;;;;;4859520;29;20127;-76
2022/06/11 10:23:58;;;;;;;27.52;5.85;;;;;;;;;;4863105;29;20036;-72
2022/06/11 10:26:29;;;;;;;23.45;4.95;;;;;;;;;;4864266;29;20508;-71
2022/06/11 10:29:02;;;;;;;28.20;5.00;;;;;;;;;;4863379;29;20135;-72
2022/06/11 10:31:30;;;;;;;31.02;5.03;;;;;;;;;;4848102;29;20040;-71
2022/06/11 10:33:58;;;;;;;29.63;4.97;;;;;;;;;;4859035;29;20044;-74
2022/06/11 10:36:23;;;;;;;29.17;5.43;;;;;;;;;;4860944;29;20111;-71
2022/06/11 10:38:56;;;;;;;32.47;6.13;;;;;;;;;;4862702;29;20134;-66
2022/06/11 10:41:28;;;;;;;21.05;4.78;;;;;;;;;;4860793;29;20043;-73
2022/06/11 10:44:00;;;;;;;33.13;6.25;;;;;;;;;;4843553;29;20064;-73
2022/06/11 10:46:25;;;;;;;;;;;;;;;;;;4863273;29;20135;-73
2022/06/11 10:48:50;;;;;;;30.23;5.73;;;;;;;;;;4862430;29;20017;-74
2022/06/11 10:51:22;;;;;;;32.17;6.45;;;;;;;;;;4862523;29;20395;-75
2022/06/11 10:53:54;;;;;;;35.53;6.47;;;;;;;;;;4859734;29;20045;-75
2022/06/11 10:56:22;;;;;;;28.50;5.10;;;;;;;;;;4860668;29;20860;-73
2022/06/11 10:58:47;;;;;;;34.90;5.90;;;;;;;;;;4860348;29;20041;-71
2022/06/11 11:01:28;;;;;;;31.92;5.80;;;;;;;;;;4859389;29;20042;-69
2022/06/11 11:03:58;;;;;;;28.20;5.65;;;;;;;;;;4861292;29;20430;-67
2022/06/11 11:06:28;;;;;;;34.75;7.00;;;;;;;;;;4860411;29;20032;-67
2022/06/11 11:08:57;;;;;;;28.77;5.35;;;;;;;;;;4862319;29;22620;-69
2022/06/11 11:11:26;;;;;;;46.80;10.85;;;;;;;;;;4844852;29;20143;-68
2022/06/11 11:13:56;;;;;;;63.13;13.00;;;;;;;;;;4863445;29;20045;-66
2022/06/11 11:16:25;;;;;;;29.80;5.43;;;;;;;;;;4858225;29;20187;-67
2022/06/11 11:18:53;;;;;;;36.30;6.90;;;;;;;;;;4863560;29;20143;-67
2022/06/11 11:21:21;;;;;;;35.13;5.68;;;;;;;;;;4862579;29;20821;-68
2022/06/11 11:23:50;;;;;;;31.75;5.63;;;;;;;;;;4842271;29;20147;-67
2022/06/11 11:26:18;;;;;;;28.10;5.05;;;;;;;;;;4858969;29;20047;-66
2022/06/11 11:29:25;;;;;;;32.20;5.53;;;;;;;;;;4856281;29;20047;-67
2022/06/11 11:31:55;;;;;;;31.50;5.50;;;;;;;;;;4758854;29;21638;-67
2022/06/11 11:34:20;;;;;;;26.63;5.63;;;;;;;;;;4760254;29;20946;-67
2022/06/11 11:36:58;;;;;;;24.70;5.30;;;;;;;;;;4811027;29;20193;-67
2022/06/11 11:39:26;;;;;;;30.08;5.80;;;;;;;;;;4854001;29;20335;-68
2022/06/11 11:42:10;;;;;;;32.35;6.63;;;;;;;;;;4843002;29;20692;-66
2022/06/11 11:44:49;;;;;;;28.83;5.53;;;;;;;;;;4853489;29;20059;-69
2022/06/11 11:47:21;;;;;;;28.05;5.63;;;;;;;;;;4863278;29;20048;-67
2022/06/11 11:49:49;;;;;;;23.45;4.88;;;;;;;;;;4860231;29;20044;-67
2022/06/11 11:52:18;;;;;;;26.33;5.40;;;;;;;;;;4863290;29;20869;-66
2022/06/11 11:54:52;;;;;;;25.23;4.65;;;;;;;;;;4840355;29;20036;-66
2022/06/11 11:57:20;;;;;;;26.00;5.25;;;;;;;;;;4862074;29;20103;-67
2022/06/11 11:59:49;;;;;;;28.13;5.50;;;;;;;;;;4862792;29;20044;-67
2022/06/11 12:02:17;;;;;;;32.45;5.30;;;;;;;;;;4861934;29;20036;-68
2022/06/11 12:04:48;;;;;;;29.38;6.28;;;;;;;;;;4863139;29;20040;-69
2022/06/11 12:07:14;;;;;;;34.90;5.95;;;;;;;;;;4863262;29;20072;-68
2022/06/11 12:09:48;;;;;;;27.58;5.05;;;;;;;;;;4861326;29;20671;-69
2022/06/11 12:12:21;;;;;;;35.50;6.47;;;;;;;;;;4861209;29;21146;-66
2022/06/11 12:14:47;;;;;;;31.95;5.63;;;;;;;;;;4841993;29;20122;-68
2022/06/11 12:17:37;;;;;;;30.75;5.88;;;;;;;;;;4860978;29;20046;-73
2022/06/11 12:20:12;;;;;;;30.05;5.70;;;;;;;;;;4852565;29;20040;-69
2022/06/11 12:22:41;;;;;;;27.40;6.20;;;;;;;;;;4848080;29;20087;-65
2022/06/11 12:25:17;;;;;;;31.25;5.20;;;;;;;;;;4866417;29;20119;-68
2022/06/11 12:27:42;;;;;;;33.10;5.85;;;;;;;;;;4865584;29;20109;-69
2022/06/11 12:30:13;;;;;;;29.55;5.53;;;;;;;;;;4870143;29;24999;-69
2022/06/11 12:32:38;;;;;;;25.45;5.07;;;;;;;;;;4869968;29;20066;-68
2022/06/11 12:35:13;;;;;;;23.27;5.32;;;;;;;;;;4868504;29;20557;-70
2022/06/11 12:37:53;;;;;;;27.55;5.30;;;;;;;;;;4866376;29;20107;-68
2022/06/11 12:40:19;;;;;;;25.52;4.93;;;;;;;;;;4867963;29;20098;-68
2022/06/11 12:42:57;;;;;;;36.10;5.88;;;;;;;;;;4871070;29;20032;-68
2022/06/11 12:45:22;;;;;;;30.55;5.55;;;;;;;;;;4868095;29;20139;-68
2022/06/11 12:47:51;;;;;;;36.83;5.82;;;;;;;;;;4868003;29;21942;-66
2022/06/11 12:50:25;;;;;;;34.40;6.07;;;;;;;;;;4863705;29;20119;-68
2022/06/11 12:53:12;;;;;;;35.45;5.65;;;;;;;;;;4863986;29;20141;-67
2022/06/11 12:55:56;;;;;;;29.08;5.70;;;;;;;;;;4848112;29;20512;-68
2022/06/11 12:58:30;;;;;;;27.40;5.47;;;;;;;;;;4868562;29;20063;-69
2022/06/11 13:01:00;;;;;;;29.75;5.72;;;;;;;;;;4866392;29;20954;-66
2022/06/11 13:03:29;;;;;;;31.10;6.05;;;;;;;;;;4868234;29;20516;-67
2022/06/11 13:05:54;;;;;;;27.08;5.18;;;;;;;;;;4868478;29;20104;-68
2022/06/11 13:08:21;;;;;;;38.72;6.10;;;;;;;;;;4866478;29;20072;-68
2022/06/11 13:10:56;;;;;;;25.88;4.75;;;;;;;;;;4843989;29;20969;-67
2022/06/11 13:13:40;;;;;;;29.98;5.95;;;;;;;;;;4866897;29;21164;-68
2022/06/11 13:16:06;;;;;;;24.98;5.18;;;;;;;;;;4864895;29;20106;-67
2022/06/11 13:18:47;;;;;;;31.48;5.32;;;;;;;;;;4861312;29;20295;-67
2022/06/11 13:21:18;;;;;;;32.75;5.95;;;;;;;;;;4859982;29;20127;-67
2022/06/11 13:24:01;;;;;;;21.90;4.60;;;;;;;;;;4845983;29;20536;-68
2022/06/11 13:26:33;;;;;;;31.08;5.40;;;;;;;;;;4860461;29;20564;-67
2022/06/11 13:29:17;;;;;;;23.83;4.78;;;;;;;;;;4860382;29;20214;-67
2022/06/11 13:31:53;;;;;;;21.70;4.82;;;;;;;;;;4861943;29;20310;-67
2022/06/11 13:34:21;;;;;;;25.55;5.00;;;;;;;;;;4861212;29;20071;-67
2022/06/11 13:36:52;;;;;;;24.60;5.43;;;;;;;;;;4857680;29;20231;-68
2022/06/11 13:39:23;;;;;;;24.77;5.55;;;;;;;;;;4861172;29;20797;-69
2022/06/11 13:41:51;;;;;;;25.83;5.15;;;;;;;;;;4859198;29;20484;-66
2022/06/11 13:44:16;;;;;;;22.63;4.57;;;;;;;;;;4863121;29;20028;-68
2022/06/11 13:46:48;;;;;;;27.92;4.82;;;;;;;;;;4855404;29;20135;-66
2022/06/11 13:49:13;;;;;;;;;;;;;;;;;;4856299;29;20048;-66
2022/06/11 13:51:40;;;;;;;26.02;4.40;;;;;;;;;;4862082;29;20334;-67
2022/06/11 13:57:05;;;;;;;24.85;5.05;;;;;;;;;;4860989;29;20107;-67
2022/06/11 13:59:33;;;;;;;28.35;4.80;;;;;;;;;;4859157;29;20522;-68
2022/06/11 14:02:14;;;;;;;22.92;4.47;;;;;;;;;;4860644;29;20055;-67
2022/06/11 14:04:45;;;;;;;24.95;4.57;;;;;;;;;;4859666;29;20066;-68
2022/06/11 14:07:11;;;;;;;27.25;4.60;;;;;;;;;;4858044;29;20091;-66
2022/06/11 14:12:40;;;;;;;28.77;4.75;;;;;;;;;;4865224;29;20040;-66
2022/06/11 14:15:12;;;;;;;24.25;5.22;;;;;;;;;;4846291;29;20061;-65
2022/06/11 14:17:37;;;;;;;26.75;4.55;;;;;;;;;;4863286;29;21166;-65
2022/06/11 14:20:17;;;;;;;25.60;4.90;;;;;;;;;;4844018;29;20119;-63
2022/06/11 14:22:48;;;;;;;29.05;5.95;;;;;;;;;;4864894;29;20058;-65
2022/06/11 14:25:35;;;;;;;31.90;10.52;;;;;;;;;;4864225;29;20040;-67
2022/06/11 14:28:17;;;;;;;22.48;5.25;;;;;;;;;;4861539;29;20821;-67
2022/06/11 14:30:45;;;;;;;33.50;11.27;;;;;;;;;;4862298;29;20040;-66
2022/06/11 14:33:16;;;;;;;29.85;11.73;;;;;;;;;;4862765;29;20122;-65
2022/06/11 14:35:48;;;;;;;32.63;13.38;;;;;;;;;;4861734;29;20044;-67
2022/06/11 14:38:32;;;;;;;26.10;7.53;;;;;;;;;;4862097;29;20044;-69
2022/06/11 14:41:07;;;;;;;25.77;7.95;;;;;;;;;;4862507;29;20040;-67
2022/06/11 14:44:07;;;;;;;21.75;6.47;;;;;;;;;;4863411;29;20128;-68
2022/06/11 14:46:33;;;;;;;26.08;7.30;;;;;;;;;;4821592;29;20064;-66
2022/06/11 14:48:59;;;;;;;19.20;5.07;;;;;;;;;;4856560;29;20036;-67
2022/06/11 14:51:28;;;;;;;22.38;6.00;;;;;;;;;;4849279;29;20039;-67
2022/06/11 14:54:03;;;;;;;19.67;4.07;;;;;;;;;;4863103;29;20867;-66